sensor_id;sensor_type;location;lat;lon;timestamp;P1;durP1;ratioP1;P2;durP2;ratioP2
37633;SDS011;32048;49.902;22.508;2022-07-29T00:00:14;18.25;;;12.55;;
37633;SDS011;32048;49.902;22.508;2022-07-29T00:03:01;16.05;;;12.18;;
37633;SDS011;32048;49.902;22.508;2022-07-29T00:05:29;18.77;;;12.02;;
37633;SDS011;32048;49.902;22.508;2022-07-29T00:07:56;16.85;;;13.25;;
37633;SDS011;32048;49.902;22.508;2022-07-29T00:10:24;18.52;;;12.75;;
37633;SDS011;32048;49.902;22.508;2022-07-29T00:12:51;18.60;;;12.85;;
37633;SDS011;32048;49.902;22.508;2022-07-29T00:15:18;18.88;;;12.68;;
37633;SDS011;32048;49.902;22.508;2022-07-29T00:17:45;15.27;;;13.13;;
37633;SDS011;32048;49.902;22.508;2022-07-29T00:20:12;16.42;;;11.85;;
37633;SDS011;32048;49.902;22.508;2022-07-29T00:22:39;20.08;;;14.20;;
37633;SDS011;32048;49.902;22.508;2022-07-29T00:25:06;15.20;;;12.38;;
37633;SDS011;32048;49.902;22.508;2022-07-29T00:27:37;15.98;;;13.02;;
37633;SDS011;32048;49.902;22.508;2022-07-29T00:30:04;22.05;;;13.35;;
37633;SDS011;32048;49.902;22.508;2022-07-29T00:32:32;19.00;;;12.77;;
37633;SDS011;32048;49.902;22.508;2022-07-29T00:35:00;19.50;;;15.73;;
37633;SDS011;32048;49.902;22.508;2022-07-29T00:37:45;31.88;;;18.17;;
37633;SDS011;32048;49.902;22.508;2022-07-29T00:40:12;19.00;;;13.13;;
37633;SDS011;32048;49.902;22.508;2022-07-29T00:42:46;22.92;;;14.70;;
37633;SDS011;32048;49.902;22.508;2022-07-29T00:45:14;21.40;;;14.13;;
37633;SDS011;32048;49.902;22.508;2022-07-29T00:47:41;17.75;;;13.45;;
37633;SDS011;32048;49.902;22.508;2022-07-29T00:50:09;18.05;;;14.57;;
37633;SDS011;32048;49.902;22.508;2022-07-29T00:52:39;19.02;;;14.82;;
37633;SDS011;32048;49.902;22.508;2022-07-29T00:55:08;18.70;;;12.95;;
37633;SDS011;32048;49.902;22.508;2022-07-29T00:57:41;17.83;;;12.82;;
37633;SDS011;32048;49.902;22.508;2022-07-29T01:00:10;16.23;;;12.63;;
37633;SDS011;32048;49.902;22.508;2022-07-29T01:02:44;17.55;;;13.43;;
37633;SDS011;32048;49.902;22.508;2022-07-29T01:05:15;18.30;;;14.45;;
37633;SDS011;32048;49.902;22.508;2022-07-29T01:07:44;18.67;;;14.25;;
37633;SDS011;32048;49.902;22.508;2022-07-29T01:10:13;18.85;;;14.98;;
37633;SDS011;32048;49.902;22.508;2022-07-29T01:12:41;20.25;;;15.50;;
37633;SDS011;32048;49.902;22.508;2022-07-29T01:15:10;22.00;;;15.48;;
37633;SDS011;32048;49.902;22.508;2022-07-29T01:20:58;18.77;;;14.10;;
37633;SDS011;32048;49.902;22.508;2022-07-29T01:26:28;20.17;;;14.52;;
37633;SDS011;32048;49.902;22.508;2022-07-29T01:29:08;22.27;;;14.57;;
37633;SDS011;32048;49.902;22.508;2022-07-29T01:37:24;17.63;;;14.43;;
37633;SDS011;32048;49.902;22.508;2022-07-29T01:39:55;18.65;;;14.38;;
37633;SDS011;32048;49.902;22.508;2022-07-29T01:44:57;19.48;;;14.50;;
37633;SDS011;32048;49.902;22.508;2022-07-29T01:47:33;22.95;;;14.93;;
37633;SDS011;32048;49.902;22.508;2022-07-29T01:50:06;16.85;;;13.82;;
37633;SDS011;32048;49.902;22.508;2022-07-29T01:52:41;19.25;;;13.38;;
37633;SDS011;32048;49.902;22.508;2022-07-29T01:55:15;21.15;;;14.68;;
37633;SDS011;32048;49.902;22.508;2022-07-29T01:57:45;19.23;;;13.77;;
37633;SDS011;32048;49.902;22.508;2022-07-29T02:00:14;18.60;;;14.02;;
37633;SDS011;32048;49.902;22.508;2022-07-29T02:02:43;20.50;;;14.25;;
37633;SDS011;32048;49.902;22.508;2022-07-29T02:05:13;21.95;;;14.85;;
37633;SDS011;32048;49.902;22.508;2022-07-29T02:07:42;18.75;;;14.45;;
37633;SDS011;32048;49.902;22.508;2022-07-29T02:10:13;24.15;;;15.43;;
37633;SDS011;32048;49.902;22.508;2022-07-29T02:12:43;19.45;;;15.10;;
37633;SDS011;32048;49.902;22.508;2022-07-29T02:15:16;19.35;;;15.48;;
37633;SDS011;32048;49.902;22.508;2022-07-29T02:17:52;19.25;;;12.43;;
37633;SDS011;32048;49.902;22.508;2022-07-29T02:20:42;19.52;;;14.15;;
37633;SDS011;32048;49.902;22.508;2022-07-29T02:23:15;19.88;;;14.90;;
37633;SDS011;32048;49.902;22.508;2022-07-29T02:25:48;22.27;;;15.43;;
37633;SDS011;32048;49.902;22.508;2022-07-29T02:28:18;21.85;;;14.73;;
37633;SDS011;32048;49.902;22.508;2022-07-29T02:30:46;21.52;;;14.90;;
37633;SDS011;32048;49.902;22.508;2022-07-29T02:33:16;19.98;;;14.40;;
37633;SDS011;32048;49.902;22.508;2022-07-29T02:35:45;17.55;;;14.25;;
37633;SDS011;32048;49.902;22.508;2022-07-29T02:38:17;23.67;;;14.98;;
37633;SDS011;32048;49.902;22.508;2022-07-29T02:41:09;20.98;;;13.88;;
37633;SDS011;32048;49.902;22.508;2022-07-29T02:43:39;22.60;;;14.35;;
37633;SDS011;32048;49.902;22.508;2022-07-29T02:46:09;19.52;;;14.48;;
37633;SDS011;32048;49.902;22.508;2022-07-29T02:48:58;18.42;;;13.90;;
37633;SDS011;32048;49.902;22.508;2022-07-29T02:51:51;16.77;;;11.85;;
37633;SDS011;32048;49.902;22.508;2022-07-29T02:57:20;16.33;;;12.93;;
37633;SDS011;32048;49.902;22.508;2022-07-29T02:59:53;20.25;;;14.95;;
37633;SDS011;32048;49.902;22.508;2022-07-29T03:02:23;17.80;;;14.23;;
37633;SDS011;32048;49.902;22.508;2022-07-29T03:04:53;19.02;;;14.45;;
37633;SDS011;32048;49.902;22.508;2022-07-29T03:07:23;20.00;;;13.82;;
37633;SDS011;32048;49.902;22.508;2022-07-29T03:09:51;23.95;;;14.80;;
37633;SDS011;32048;49.902;22.508;2022-07-29T03:12:19;18.42;;;14.13;;
37633;SDS011;32048;49.902;22.508;2022-07-29T03:14:46;20.13;;;13.70;;
37633;SDS011;32048;49.902;22.508;2022-07-29T03:17:15;19.15;;;13.43;;
37633;SDS011;32048;49.902;22.508;2022-07-29T03:19:42;21.77;;;13.98;;
37633;SDS011;32048;49.902;22.508;2022-07-29T03:22:10;19.55;;;14.27;;
37633;SDS011;32048;49.902;22.508;2022-07-29T03:24:37;21.38;;;15.00;;
37633;SDS011;32048;49.902;22.508;2022-07-29T03:27:04;20.42;;;13.82;;
37633;SDS011;32048;49.902;22.508;2022-07-29T03:29:32;19.55;;;13.43;;
37633;SDS011;32048;49.902;22.508;2022-07-29T03:32:03;16.25;;;11.40;;
37633;SDS011;32048;49.902;22.508;2022-07-29T03:34:35;15.68;;;11.40;;
37633;SDS011;32048;49.902;22.508;2022-07-29T03:37:04;16.70;;;11.27;;
37633;SDS011;32048;49.902;22.508;2022-07-29T03:39:33;14.63;;;10.90;;
37633;SDS011;32048;49.902;22.508;2022-07-29T03:42:06;14.75;;;12.23;;
37633;SDS011;32048;49.902;22.508;2022-07-29T03:44:34;16.23;;;11.60;;
37633;SDS011;32048;49.902;22.508;2022-07-29T03:47:03;19.75;;;12.10;;
37633;SDS011;32048;49.902;22.508;2022-07-29T03:49:33;17.45;;;11.93;;
37633;SDS011;32048;49.902;22.508;2022-07-29T03:52:03;12.82;;;10.43;;
37633;SDS011;32048;49.902;22.508;2022-07-29T03:54:31;13.40;;;10.07;;
37633;SDS011;32048;49.902;22.508;2022-07-29T03:56:59;14.15;;;10.30;;
37633;SDS011;32048;49.902;22.508;2022-07-29T03:59:27;15.63;;;9.50;;
37633;SDS011;32048;49.902;22.508;2022-07-29T04:02:00;14.02;;;9.27;;
37633;SDS011;32048;49.902;22.508;2022-07-29T04:04:28;14.57;;;9.25;;
37633;SDS011;32048;49.902;22.508;2022-07-29T04:06:59;12.00;;;9.25;;
37633;SDS011;32048;49.902;22.508;2022-07-29T04:09:27;11.48;;;8.85;;
37633;SDS011;32048;49.902;22.508;2022-07-29T04:11:53;14.60;;;8.65;;
37633;SDS011;32048;49.902;22.508;2022-07-29T04:14:30;14.30;;;9.88;;
37633;SDS011;32048;49.902;22.508;2022-07-29T04:16:58;11.20;;;7.45;;
37633;SDS011;32048;49.902;22.508;2022-07-29T04:19:26;14.35;;;8.32;;
37633;SDS011;32048;49.902;22.508;2022-07-29T04:21:53;11.48;;;8.30;;
37633;SDS011;32048;49.902;22.508;2022-07-29T04:24:20;13.05;;;8.60;;
37633;SDS011;32048;49.902;22.508;2022-07-29T04:26:47;15.57;;;9.60;;
37633;SDS011;32048;49.902;22.508;2022-07-29T04:29:14;11.60;;;8.98;;
37633;SDS011;32048;49.902;22.508;2022-07-29T04:31:42;16.08;;;9.63;;
37633;SDS011;32048;49.902;22.508;2022-07-29T04:34:11;12.23;;;9.55;;
37633;SDS011;32048;49.902;22.508;2022-07-29T04:36:39;12.38;;;9.00;;
37633;SDS011;32048;49.902;22.508;2022-07-29T04:39:06;11.63;;;8.50;;
37633;SDS011;32048;49.902;22.508;2022-07-29T04:41:33;15.32;;;7.40;;
37633;SDS011;32048;49.902;22.508;2022-07-29T04:44:00;12.65;;;7.75;;
37633;SDS011;32048;49.902;22.508;2022-07-29T04:46:32;12.70;;;7.43;;
37633;SDS011;32048;49.902;22.508;2022-07-29T04:49:00;11.30;;;6.68;;
37633;SDS011;32048;49.902;22.508;2022-07-29T04:51:27;10.73;;;5.85;;
37633;SDS011;32048;49.902;22.508;2022-07-29T04:53:54;10.05;;;5.75;;
37633;SDS011;32048;49.902;22.508;2022-07-29T04:56:21;9.50;;;6.22;;
37633;SDS011;32048;49.902;22.508;2022-07-29T04:58:48;10.07;;;5.45;;
37633;SDS011;32048;49.902;22.508;2022-07-29T05:01:15;7.18;;;5.00;;
37633;SDS011;32048;49.902;22.508;2022-07-29T05:03:42;9.63;;;5.18;;
37633;SDS011;32048;49.902;22.508;2022-07-29T05:06:09;9.70;;;4.82;;
37633;SDS011;32048;49.902;22.508;2022-07-29T05:08:36;8.98;;;5.25;;
37633;SDS011;32048;49.902;22.508;2022-07-29T05:11:03;8.98;;;5.00;;
37633;SDS011;32048;49.902;22.508;2022-07-29T05:13:38;8.32;;;5.28;;
37633;SDS011;32048;49.902;22.508;2022-07-29T05:16:12;8.10;;;5.28;;
37633;SDS011;32048;49.902;22.508;2022-07-29T05:18:40;8.13;;;4.97;;
37633;SDS011;32048;49.902;22.508;2022-07-29T05:21:07;5.43;;;3.80;;
37633;SDS011;32048;49.902;22.508;2022-07-29T05:23:34;8.50;;;3.40;;
37633;SDS011;32048;49.902;22.508;2022-07-29T05:26:01;8.10;;;3.53;;
37633;SDS011;32048;49.902;22.508;2022-07-29T05:28:28;4.28;;;2.70;;
37633;SDS011;32048;49.902;22.508;2022-07-29T05:30:54;9.10;;;2.50;;
37633;SDS011;32048;49.902;22.508;2022-07-29T05:33:23;5.20;;;3.05;;
37633;SDS011;32048;49.902;22.508;2022-07-29T05:36:05;4.35;;;2.65;;
37633;SDS011;32048;49.902;22.508;2022-07-29T05:38:34;4.90;;;3.00;;
37633;SDS011;32048;49.902;22.508;2022-07-29T05:41:02;7.07;;;3.37;;
37633;SDS011;32048;49.902;22.508;2022-07-29T05:43:29;5.20;;;2.40;;
37633;SDS011;32048;49.902;22.508;2022-07-29T05:45:57;3.60;;;2.70;;
37633;SDS011;32048;49.902;22.508;2022-07-29T05:48:24;4.00;;;2.45;;
37633;SDS011;32048;49.902;22.508;2022-07-29T05:50:52;6.35;;;3.08;;
37633;SDS011;32048;49.902;22.508;2022-07-29T05:53:19;3.00;;;2.65;;
37633;SDS011;32048;49.902;22.508;2022-07-29T05:55:47;8.32;;;3.30;;
37633;SDS011;32048;49.902;22.508;2022-07-29T05:58:14;5.18;;;2.60;;
37633;SDS011;32048;49.902;22.508;2022-07-29T06:00:41;4.78;;;2.72;;
37633;SDS011;32048;49.902;22.508;2022-07-29T06:03:08;4.53;;;2.50;;
37633;SDS011;32048;49.902;22.508;2022-07-29T06:05:35;6.35;;;2.10;;
37633;SDS011;32048;49.902;22.508;2022-07-29T06:08:02;6.22;;;3.10;;
37633;SDS011;32048;49.902;22.508;2022-07-29T06:10:32;6.30;;;2.40;;
37633;SDS011;32048;49.902;22.508;2022-07-29T06:13:00;7.15;;;2.42;;
37633;SDS011;32048;49.902;22.508;2022-07-29T06:15:27;3.75;;;2.00;;
37633;SDS011;32048;49.902;22.508;2022-07-29T06:17:54;4.50;;;2.22;;
37633;SDS011;32048;49.902;22.508;2022-07-29T06:20:26;3.78;;;2.00;;
37633;SDS011;32048;49.902;22.508;2022-07-29T06:22:56;4.13;;;1.90;;
37633;SDS011;32048;49.902;22.508;2022-07-29T06:25:23;8.80;;;2.15;;
37633;SDS011;32048;49.902;22.508;2022-07-29T06:27:50;3.50;;;1.88;;
37633;SDS011;32048;49.902;22.508;2022-07-29T06:30:17;2.67;;;1.75;;
37633;SDS011;32048;49.902;22.508;2022-07-29T06:32:44;3.97;;;2.03;;
37633;SDS011;32048;49.902;22.508;2022-07-29T06:35:11;3.78;;;1.83;;
37633;SDS011;32048;49.902;22.508;2022-07-29T06:37:58;3.88;;;2.15;;
37633;SDS011;32048;49.902;22.508;2022-07-29T06:40:26;3.92;;;1.90;;
37633;SDS011;32048;49.902;22.508;2022-07-29T06:43:11;5.63;;;2.08;;
37633;SDS011;32048;49.902;22.508;2022-07-29T06:45:38;3.20;;;1.88;;
37633;SDS011;32048;49.902;22.508;2022-07-29T06:48:08;7.82;;;3.30;;
37633;SDS011;32048;49.902;22.508;2022-07-29T06:50:36;6.32;;;2.63;;
37633;SDS011;32048;49.902;22.508;2022-07-29T06:53:03;4.45;;;1.88;;
37633;SDS011;32048;49.902;22.508;2022-07-29T06:55:30;4.55;;;2.10;;
37633;SDS011;32048;49.902;22.508;2022-07-29T06:57:57;4.82;;;2.30;;
37633;SDS011;32048;49.902;22.508;2022-07-29T07:00:24;5.47;;;2.00;;
37633;SDS011;32048;49.902;22.508;2022-07-29T07:02:51;4.07;;;1.60;;
37633;SDS011;32048;49.902;22.508;2022-07-29T07:05:18;5.15;;;2.05;;
37633;SDS011;32048;49.902;22.508;2022-07-29T07:07:45;4.35;;;1.90;;
37633;SDS011;32048;49.902;22.508;2022-07-29T07:10:12;4.25;;;2.10;;
37633;SDS011;32048;49.902;22.508;2022-07-29T07:12:39;5.28;;;2.28;;
37633;SDS011;32048;49.902;22.508;2022-07-29T07:15:06;4.38;;;1.88;;
37633;SDS011;32048;49.902;22.508;2022-07-29T07:17:33;3.45;;;2.20;;
37633;SDS011;32048;49.902;22.508;2022-07-29T07:20:00;5.40;;;2.10;;
37633;SDS011;32048;49.902;22.508;2022-07-29T07:22:27;3.80;;;2.00;;
37633;SDS011;32048;49.902;22.508;2022-07-29T07:24:54;3.72;;;2.67;;
37633;SDS011;32048;49.902;22.508;2022-07-29T07:27:21;4.43;;;1.80;;
37633;SDS011;32048;49.902;22.508;2022-07-29T07:29:48;5.07;;;1.92;;
37633;SDS011;32048;49.902;22.508;2022-07-29T07:32:15;8.35;;;2.22;;
37633;SDS011;32048;49.902;22.508;2022-07-29T07:34:43;4.30;;;2.53;;
37633;SDS011;32048;49.902;22.508;2022-07-29T07:37:10;2.60;;;1.75;;
37633;SDS011;32048;49.902;22.508;2022-07-29T07:39:37;7.93;;;5.00;;
37633;SDS011;32048;49.902;22.508;2022-07-29T07:42:04;5.03;;;2.35;;
37633;SDS011;32048;49.902;22.508;2022-07-29T07:44:31;4.63;;;2.05;;
37633;SDS011;32048;49.902;22.508;2022-07-29T07:47:07;5.15;;;2.10;;
37633;SDS011;32048;49.902;22.508;2022-07-29T07:49:38;2.83;;;1.70;;
37633;SDS011;32048;49.902;22.508;2022-07-29T07:52:07;7.32;;;3.70;;
37633;SDS011;32048;49.902;22.508;2022-07-29T07:54:34;8.75;;;3.42;;
37633;SDS011;32048;49.902;22.508;2022-07-29T07:57:00;10.68;;;2.33;;
37633;SDS011;32048;49.902;22.508;2022-07-29T07:59:27;5.38;;;2.45;;
37633;SDS011;32048;49.902;22.508;2022-07-29T08:01:55;5.63;;;1.95;;
37633;SDS011;32048;49.902;22.508;2022-07-29T08:04:22;6.03;;;2.00;;
37633;SDS011;32048;49.902;22.508;2022-07-29T08:06:54;5.78;;;1.90;;
37633;SDS011;32048;49.902;22.508;2022-07-29T08:09:24;4.07;;;2.17;;
37633;SDS011;32048;49.902;22.508;2022-07-29T08:11:55;4.07;;;2.17;;
37633;SDS011;32048;49.902;22.508;2022-07-29T08:14:23;3.17;;;2.10;;
37633;SDS011;32048;49.902;22.508;2022-07-29T08:16:50;5.50;;;1.98;;
37633;SDS011;32048;49.902;22.508;2022-07-29T08:19:18;7.53;;;2.40;;
37633;SDS011;32048;49.902;22.508;2022-07-29T08:21:44;3.35;;;2.00;;
37633;SDS011;32048;49.902;22.508;2022-07-29T08:24:12;7.07;;;2.00;;
37633;SDS011;32048;49.902;22.508;2022-07-29T08:26:57;5.13;;;2.10;;
37633;SDS011;32048;49.902;22.508;2022-07-29T08:29:24;3.20;;;2.05;;
37633;SDS011;32048;49.902;22.508;2022-07-29T08:31:51;6.50;;;1.90;;
37633;SDS011;32048;49.902;22.508;2022-07-29T08:34:19;6.05;;;2.10;;
37633;SDS011;32048;49.902;22.508;2022-07-29T08:36:53;4.30;;;2.17;;
37633;SDS011;32048;49.902;22.508;2022-07-29T08:39:22;4.18;;;2.03;;
37633;SDS011;32048;49.902;22.508;2022-07-29T08:41:49;5.35;;;1.88;;
37633;SDS011;32048;49.902;22.508;2022-07-29T08:44:23;3.03;;;1.67;;
37633;SDS011;32048;49.902;22.508;2022-07-29T08:46:56;3.08;;;1.90;;
37633;SDS011;32048;49.902;22.508;2022-07-29T08:49:23;4.20;;;1.90;;
37633;SDS011;32048;49.902;22.508;2022-07-29T08:51:50;3.25;;;1.83;;
37633;SDS011;32048;49.902;22.508;2022-07-29T08:54:20;8.35;;;2.08;;
37633;SDS011;32048;49.902;22.508;2022-07-29T08:56:50;4.95;;;1.83;;
37633;SDS011;32048;49.902;22.508;2022-07-29T08:59:20;4.80;;;2.15;;
37633;SDS011;32048;49.902;22.508;2022-07-29T09:01:50;11.88;;;1.90;;
37633;SDS011;32048;49.902;22.508;2022-07-29T09:04:20;5.50;;;2.85;;
37633;SDS011;32048;49.902;22.508;2022-07-29T09:06:51;4.95;;;1.80;;
37633;SDS011;32048;49.902;22.508;2022-07-29T09:09:20;3.75;;;1.75;;
37633;SDS011;32048;49.902;22.508;2022-07-29T09:11:48;4.60;;;1.63;;
37633;SDS011;32048;49.902;22.508;2022-07-29T09:14:15;3.00;;;1.67;;
37633;SDS011;32048;49.902;22.508;2022-07-29T09:16:43;3.75;;;1.80;;
37633;SDS011;32048;49.902;22.508;2022-07-29T09:19:24;3.05;;;1.90;;
37633;SDS011;32048;49.902;22.508;2022-07-29T09:21:53;2.53;;;1.83;;
37633;SDS011;32048;49.902;22.508;2022-07-29T09:24:25;6.85;;;1.90;;
37633;SDS011;32048;49.902;22.508;2022-07-29T09:26:53;5.40;;;1.80;;
37633;SDS011;32048;49.902;22.508;2022-07-29T09:29:22;3.45;;;1.75;;
37633;SDS011;32048;49.902;22.508;2022-07-29T09:31:51;2.53;;;1.88;;
37633;SDS011;32048;49.902;22.508;2022-07-29T09:34:23;6.55;;;2.00;;
37633;SDS011;32048;49.902;22.508;2022-07-29T09:36:52;10.60;;;2.30;;
37633;SDS011;32048;49.902;22.508;2022-07-29T09:39:30;4.05;;;1.58;;
37633;SDS011;32048;49.902;22.508;2022-07-29T09:42:00;7.43;;;2.00;;
37633;SDS011;32048;49.902;22.508;2022-07-29T09:44:45;2.75;;;1.80;;
37633;SDS011;32048;49.902;22.508;2022-07-29T09:47:15;3.85;;;2.35;;
37633;SDS011;32048;49.902;22.508;2022-07-29T09:49:50;3.30;;;2.17;;
37633;SDS011;32048;49.902;22.508;2022-07-29T09:52:17;3.78;;;2.22;;
37633;SDS011;32048;49.902;22.508;2022-07-29T09:54:45;4.07;;;1.80;;
37633;SDS011;32048;49.902;22.508;2022-07-29T09:57:26;8.32;;;2.22;;
37633;SDS011;32048;49.902;22.508;2022-07-29T10:00:13;4.18;;;2.20;;
37633;SDS011;32048;49.902;22.508;2022-07-29T10:02:43;5.97;;;2.00;;
37633;SDS011;32048;49.902;22.508;2022-07-29T10:05:18;4.20;;;2.00;;
37633;SDS011;32048;49.902;22.508;2022-07-29T10:10:23;6.55;;;1.95;;
37633;SDS011;32048;49.902;22.508;2022-07-29T10:12:51;4.72;;;2.10;;
37633;SDS011;32048;49.902;22.508;2022-07-29T10:15:34;8.27;;;2.05;;
37633;SDS011;32048;49.902;22.508;2022-07-29T10:18:11;3.42;;;2.13;;
37633;SDS011;32048;49.902;22.508;2022-07-29T10:20:39;4.47;;;2.70;;
37633;SDS011;32048;49.902;22.508;2022-07-29T10:23:06;6.65;;;2.83;;
37633;SDS011;32048;49.902;22.508;2022-07-29T10:25:33;4.20;;;2.30;;
37633;SDS011;32048;49.902;22.508;2022-07-29T10:28:00;4.70;;;2.38;;
37633;SDS011;32048;49.902;22.508;2022-07-29T10:30:27;3.33;;;2.10;;
37633;SDS011;32048;49.902;22.508;2022-07-29T10:40:39;3.40;;;2.22;;
37633;SDS011;32048;49.902;22.508;2022-07-29T10:43:48;3.53;;;2.42;;
37633;SDS011;32048;49.902;22.508;2022-07-29T10:46:17;4.82;;;2.47;;
37633;SDS011;32048;49.902;22.508;2022-07-29T10:52:09;4.85;;;3.05;;
37633;SDS011;32048;49.902;22.508;2022-07-29T10:57:24;5.65;;;2.60;;
37633;SDS011;32048;49.902;22.508;2022-07-29T11:02:43;9.02;;;2.65;;
37633;SDS011;32048;49.902;22.508;2022-07-29T11:08:22;7.35;;;3.55;;
37633;SDS011;32048;49.902;22.508;2022-07-29T11:10:52;5.40;;;2.63;;
37633;SDS011;32048;49.902;22.508;2022-07-29T11:19:23;5.32;;;2.40;;
37633;SDS011;32048;49.902;22.508;2022-07-29T11:21:56;5.93;;;2.60;;
37633;SDS011;32048;49.902;22.508;2022-07-29T11:24:25;4.78;;;2.63;;
37633;SDS011;32048;49.902;22.508;2022-07-29T11:27:13;3.15;;;2.33;;
37633;SDS011;32048;49.902;22.508;2022-07-29T11:30:01;4.43;;;2.08;;
37633;SDS011;32048;49.902;22.508;2022-07-29T11:32:39;3.45;;;2.50;;
37633;SDS011;32048;49.902;22.508;2022-07-29T11:35:11;3.63;;;2.25;;
37633;SDS011;32048;49.902;22.508;2022-07-29T11:37:44;4.68;;;2.13;;
37633;SDS011;32048;49.902;22.508;2022-07-29T11:40:33;5.20;;;2.33;;
37633;SDS011;32048;49.902;22.508;2022-07-29T11:45:45;6.15;;;2.90;;
37633;SDS011;32048;49.902;22.508;2022-07-29T11:48:16;8.15;;;2.75;;
37633;SDS011;32048;49.902;22.508;2022-07-29T11:50:55;5.00;;;2.28;;
37633;SDS011;32048;49.902;22.508;2022-07-29T11:55:54;5.32;;;2.35;;
37633;SDS011;32048;49.902;22.508;2022-07-29T11:58:23;6.35;;;2.30;;
37633;SDS011;32048;49.902;22.508;2022-07-29T12:00:52;7.88;;;2.20;;
37633;SDS011;32048;49.902;22.508;2022-07-29T12:03:39;3.95;;;2.30;;
37633;SDS011;32048;49.902;22.508;2022-07-29T12:06:12;5.35;;;2.35;;
37633;SDS011;32048;49.902;22.508;2022-07-29T12:08:42;7.10;;;2.30;;
37633;SDS011;32048;49.902;22.508;2022-07-29T12:11:20;4.50;;;2.20;;
37633;SDS011;32048;49.902;22.508;2022-07-29T12:13:52;6.18;;;2.65;;
37633;SDS011;32048;49.902;22.508;2022-07-29T12:16:20;7.13;;;2.70;;
37633;SDS011;32048;49.902;22.508;2022-07-29T12:18:55;4.45;;;2.55;;
37633;SDS011;32048;49.902;22.508;2022-07-29T12:21:29;4.28;;;2.33;;
37633;SDS011;32048;49.902;22.508;2022-07-29T12:24:22;7.05;;;2.00;;
37633;SDS011;32048;49.902;22.508;2022-07-29T12:26:56;7.68;;;2.33;;
37633;SDS011;32048;49.902;22.508;2022-07-29T12:29:24;5.40;;;2.15;;
37633;SDS011;32048;49.902;22.508;2022-07-29T12:32:01;4.53;;;2.20;;
37633;SDS011;32048;49.902;22.508;2022-07-29T12:34:31;3.05;;;2.10;;
37633;SDS011;32048;49.902;22.508;2022-07-29T12:36:58;3.45;;;2.10;;
37633;SDS011;32048;49.902;22.508;2022-07-29T12:39:26;3.30;;;2.10;;
37633;SDS011;32048;49.902;22.508;2022-07-29T12:47:30;9.95;;;3.30;;
37633;SDS011;32048;49.902;22.508;2022-07-29T12:50:09;5.70;;;2.42;;
37633;SDS011;32048;49.902;22.508;2022-07-29T12:52:41;7.15;;;2.60;;
37633;SDS011;32048;49.902;22.508;2022-07-29T12:55:08;5.38;;;2.20;;
37633;SDS011;32048;49.902;22.508;2022-07-29T12:57:48;6.80;;;2.40;;
37633;SDS011;32048;49.902;22.508;2022-07-29T13:00:23;4.13;;;2.35;;
37633;SDS011;32048;49.902;22.508;2022-07-29T13:02:54;4.43;;;2.30;;
37633;SDS011;32048;49.902;22.508;2022-07-29T13:05:23;5.03;;;2.60;;
37633;SDS011;32048;49.902;22.508;2022-07-29T13:07:50;4.38;;;2.80;;
37633;SDS011;32048;49.902;22.508;2022-07-29T13:10:22;4.40;;;2.50;;
37633;SDS011;32048;49.902;22.508;2022-07-29T13:17:56;3.15;;;1.80;;
37633;SDS011;32048;49.902;22.508;2022-07-29T13:20:24;5.63;;;2.20;;
37633;SDS011;32048;49.902;22.508;2022-07-29T13:22:51;6.05;;;2.40;;
37633;SDS011;32048;49.902;22.508;2022-07-29T13:25:31;8.68;;;2.85;;
37633;SDS011;32048;49.902;22.508;2022-07-29T13:27:59;4.30;;;2.53;;
37633;SDS011;32048;49.902;22.508;2022-07-29T13:30:26;11.02;;;2.72;;
37633;SDS011;32048;49.902;22.508;2022-07-29T13:32:53;5.70;;;2.50;;
37633;SDS011;32048;49.902;22.508;2022-07-29T13:35:21;6.63;;;2.38;;
37633;SDS011;32048;49.902;22.508;2022-07-29T13:37:48;3.80;;;2.22;;
37633;SDS011;32048;49.902;22.508;2022-07-29T13:42:44;4.72;;;2.40;;
37633;SDS011;32048;49.902;22.508;2022-07-29T13:45:12;3.72;;;2.05;;
37633;SDS011;32048;49.902;22.508;2022-07-29T13:47:39;6.15;;;2.60;;
37633;SDS011;32048;49.902;22.508;2022-07-29T13:50:14;5.28;;;2.50;;
37633;SDS011;32048;49.902;22.508;2022-07-29T13:52:41;4.55;;;2.60;;
37633;SDS011;32048;49.902;22.508;2022-07-29T13:55:08;5.00;;;2.42;;
37633;SDS011;32048;49.902;22.508;2022-07-29T13:57:35;4.80;;;2.60;;
37633;SDS011;32048;49.902;22.508;2022-07-29T14:00:02;5.78;;;3.28;;
37633;SDS011;32048;49.902;22.508;2022-07-29T14:02:30;4.55;;;2.60;;
37633;SDS011;32048;49.902;22.508;2022-07-29T14:04:57;3.72;;;2.63;;
37633;SDS011;32048;49.902;22.508;2022-07-29T14:07:24;3.78;;;2.50;;
37633;SDS011;32048;49.902;22.508;2022-07-29T14:09:51;8.50;;;2.97;;
37633;SDS011;32048;49.902;22.508;2022-07-29T14:12:18;4.03;;;2.40;;
37633;SDS011;32048;49.902;22.508;2022-07-29T14:14:46;4.80;;;2.40;;
37633;SDS011;32048;49.902;22.508;2022-07-29T14:17:13;5.97;;;2.42;;
37633;SDS011;32048;49.902;22.508;2022-07-29T14:19:41;3.55;;;2.15;;
37633;SDS011;32048;49.902;22.508;2022-07-29T14:22:08;5.15;;;3.45;;
37633;SDS011;32048;49.902;22.508;2022-07-29T14:24:36;8.77;;;5.60;;
37633;SDS011;32048;49.902;22.508;2022-07-29T14:27:04;3.35;;;2.28;;
37633;SDS011;32048;49.902;22.508;2022-07-29T14:29:32;4.72;;;2.90;;
37633;SDS011;32048;49.902;22.508;2022-07-29T14:32:06;4.13;;;2.53;;
37633;SDS011;32048;49.902;22.508;2022-07-29T14:34:36;3.92;;;2.40;;
37633;SDS011;32048;49.902;22.508;2022-07-29T14:37:04;6.05;;;2.47;;
37633;SDS011;32048;49.902;22.508;2022-07-29T14:39:33;6.63;;;2.58;;
37633;SDS011;32048;49.902;22.508;2022-07-29T14:42:09;7.68;;;2.50;;
37633;SDS011;32048;49.902;22.508;2022-07-29T14:44:38;7.35;;;2.28;;
37633;SDS011;32048;49.902;22.508;2022-07-29T14:47:10;7.35;;;2.47;;
37633;SDS011;32048;49.902;22.508;2022-07-29T14:49:37;3.85;;;2.55;;
37633;SDS011;32048;49.902;22.508;2022-07-29T14:52:04;4.90;;;2.20;;
37633;SDS011;32048;49.902;22.508;2022-07-29T14:54:31;5.07;;;2.33;;
37633;SDS011;32048;49.902;22.508;2022-07-29T14:56:58;6.43;;;2.70;;
37633;SDS011;32048;49.902;22.508;2022-07-29T14:59:25;5.15;;;3.58;;
37633;SDS011;32048;49.902;22.508;2022-07-29T15:01:52;4.60;;;2.60;;
37633;SDS011;32048;49.902;22.508;2022-07-29T15:04:19;6.20;;;3.50;;
37633;SDS011;32048;49.902;22.508;2022-07-29T15:06:47;7.95;;;2.88;;
37633;SDS011;32048;49.902;22.508;2022-07-29T15:09:14;5.72;;;2.90;;
37633;SDS011;32048;49.902;22.508;2022-07-29T15:11:41;7.75;;;4.78;;
37633;SDS011;32048;49.902;22.508;2022-07-29T15:14:08;11.48;;;4.38;;
37633;SDS011;32048;49.902;22.508;2022-07-29T15:16:36;8.43;;;3.40;;
37633;SDS011;32048;49.902;22.508;2022-07-29T15:19:04;4.72;;;2.83;;
37633;SDS011;32048;49.902;22.508;2022-07-29T15:21:31;6.32;;;2.67;;
37633;SDS011;32048;49.902;22.508;2022-07-29T15:23:58;7.22;;;2.90;;
37633;SDS011;32048;49.902;22.508;2022-07-29T15:26:26;7.55;;;2.92;;
37633;SDS011;32048;49.902;22.508;2022-07-29T15:28:53;10.00;;;4.03;;
37633;SDS011;32048;49.902;22.508;2022-07-29T15:33:49;11.93;;;6.95;;
37633;SDS011;32048;49.902;22.508;2022-07-29T15:36:22;17.35;;;7.85;;
37633;SDS011;32048;49.902;22.508;2022-07-29T15:39:09;13.40;;;8.48;;
37633;SDS011;32048;49.902;22.508;2022-07-29T15:41:36;18.48;;;11.13;;
37633;SDS011;32048;49.902;22.508;2022-07-29T15:44:03;12.77;;;6.32;;
37633;SDS011;32048;49.902;22.508;2022-07-29T15:46:30;9.82;;;4.95;;
37633;SDS011;32048;49.902;22.508;2022-07-29T15:49:16;12.27;;;3.78;;